Time;durP1;ratioP1;P1;durP2;ratioP2;P2;SDS_P1;SDS_P2;PMS_P1;PMS_P2;Temp;Humidity;BMP_temperature;BMP_pressure;BME280_temperature;BME280_humidity;BME280_pressure;Samples;Min_cycle;Max_cycle;Signal;HPM_P1;HPM_P2
2022/05/22 00:00:35;;;;;;;10.32;6.13;;;;;;;16.98;93.16;92957.94;5048545;28;20076;-78
2022/05/22 00:03:03;;;;;;;8.52;6.05;;;;;;;16.93;93.90;92958.69;5048679;28;20045;-78
2022/05/22 00:05:30;;;;;;;8.18;5.85;;;;;;;16.89;95.75;92956.88;5048950;28;20053;-78
2022/05/22 00:07:57;;;;;;;11.70;5.75;;;;;;;16.80;99.69;92954.00;5048626;28;20059;-78
2022/05/22 00:10:24;;;;;;;11.80;6.53;;;;;;;16.74;95.61;92950.59;5048709;28;20394;-78
2022/05/22 00:12:52;;;;;;;9.48;6.22;;;;;;;16.76;95.81;92958.13;5048660;28;20044;-78
2022/05/22 00:15:19;;;;;;;8.15;6.15;;;;;;;16.74;95.68;92955.00;5048339;28;20048;-78
2022/05/22 00:17:46;;;;;;;10.98;6.10;;;;;;;16.68;96.03;92954.22;5048557;28;20045;-78
2022/05/22 00:20:14;;;;;;;10.13;6.40;;;;;;;16.67;94.97;92952.66;5048428;28;20056;-78
2022/05/22 00:22:41;;;;;;;8.82;5.65;;;;;;;16.61;97.75;92941.47;5047078;28;20388;-78
2022/05/22 00:25:11;;;;;;;8.63;5.80;;;;;;;16.40;98.80;92930.25;5048555;28;20126;-78
2022/05/22 00:27:39;;;;;;;9.38;6.63;;;;;;;16.45;99.98;92947.63;5048541;28;20514;-79
2022/05/22 00:30:09;;;;;;;9.80;6.63;;;;;;;16.23;99.68;92928.59;5048306;28;20053;-79
2022/05/22 00:32:36;;;;;;;10.52;6.22;;;;;;;16.09;100.00;92912.72;5048103;28;20056;-79
2022/05/22 00:35:04;;;;;;;8.73;5.97;;;;;;;16.25;98.86;92942.09;5048341;28;20426;-79
2022/05/22 00:37:31;;;;;;;7.80;5.80;;;;;;;16.19;100.00;92937.91;5041823;28;20049;-78
2022/05/22 00:39:58;;;;;;;7.75;5.90;;;;;;;16.17;99.83;92939.97;5040207;28;20079;-79
2022/05/22 00:42:26;;;;;;;8.27;5.95;;;;;;;16.12;99.24;92938.13;5041429;28;20060;-79
2022/05/22 00:44:54;;;;;;;8.82;6.20;;;;;;;16.14;100.00;92943.84;5041129;28;20462;-79
2022/05/22 00:47:23;;;;;;;8.18;6.30;;;;;;;15.97;100.00;92919.91;5041580;28;20535;-79
2022/05/22 00:49:50;;;;;;;8.25;6.32;;;;;;;16.05;100.00;92940.16;5042060;28;20132;-79
2022/05/22 00:52:23;;;;;;;10.57;6.40;;;;;;;16.01;100.00;92941.69;5039788;28;20564;-79
2022/05/22 00:54:56;;;;;;;7.70;5.57;;;;;;;16.04;100.00;92943.78;5040836;28;20044;-78
2022/05/22 00:57:27;;;;;;;7.97;5.53;;;;;;;15.94;99.51;92923.78;5039728;28;20045;-79
2022/05/22 00:59:57;;;;;;;8.52;6.60;;;;;;;16.00;99.33;92937.53;5039265;28;20049;-79
2022/05/22 01:02:26;;;;;;;8.55;5.88;;;;;;;16.03;100.00;92945.59;5026851;28;20041;-79
2022/05/22 01:04:53;;;;;;;8.82;5.80;;;;;;;16.03;99.29;92944.81;5045243;28;20057;-79
2022/05/22 01:07:20;;;;;;;8.77;6.18;;;;;;;16.03;100.00;92950.00;5043495;28;20064;-78
2022/05/22 01:09:48;;;;;;;7.97;6.07;;;;;;;16.01;99.75;92947.66;5041538;28;20049;-78
2022/05/22 01:12:18;;;;;;;10.82;6.05;;;;;;;15.99;99.52;92941.94;5044467;28;20053;-79
2022/05/22 01:14:47;;;;;;;9.82;5.72;;;;;;;15.88;100.00;92930.69;5040542;28;20056;-79
2022/05/22 01:17:15;;;;;;;8.20;5.90;;;;;;;15.95;100.00;92940.09;5043015;28;20065;-79
2022/05/22 01:19:54;;;;;;;8.13;5.80;;;;;;;15.81;100.00;92929.34;5043922;28;20037;-79
2022/05/22 01:22:23;;;;;;;7.55;5.82;;;;;;;15.86;100.00;92937.16;5044219;28;20432;-79
2022/05/22 01:24:50;;;;;;;8.15;6.25;;;;;;;15.84;100.00;92937.41;5041137;28;20049;-79
2022/05/22 01:27:18;;;;;;;7.90;5.80;;;;;;;15.83;100.00;92943.63;5043460;28;20040;-79
2022/05/22 01:29:45;;;;;;;7.25;5.85;;;;;;;15.74;100.00;92921.81;5042407;28;20056;-79
2022/05/22 01:32:12;;;;;;;10.98;5.85;;;;;;;15.81;100.00;92934.53;5043598;28;20064;-79
2022/05/22 01:34:39;;;;;;;8.23;5.95;;;;;;;15.81;100.00;92939.72;5044497;28;20420;-79
2022/05/22 01:37:06;;;;;;;10.38;6.20;;;;;;;15.79;100.00;92934.81;5041777;28;20048;-79
2022/05/22 01:39:35;;;;;;;7.50;5.72;;;;;;;15.80;100.00;92941.53;5043062;28;20045;-79
2022/05/22 01:42:01;;;;;;;9.40;6.28;;;;;;;15.81;100.00;92937.13;5044427;28;20053;-78
2022/05/22 01:44:28;;;;;;;8.00;6.20;;;;;;;15.43;100.00;92890.50;5043834;28;20048;-78
2022/05/22 01:46:55;;;;;;;8.75;6.13;;;;;;;15.66;100.00;92933.41;5044668;28;20045;-78
2022/05/22 01:49:22;;;;;;;7.93;5.43;;;;;;;15.70;100.00;92933.69;5041464;28;20038;-79
2022/05/22 01:51:49;;;;;;;7.28;5.47;;;;;;;15.67;100.00;92929.00;5044046;28;20051;-78
2022/05/22 01:54:16;;;;;;;7.75;5.93;;;;;;;15.64;100.00;92932.84;5043089;28;20072;-79
2022/05/22 01:56:44;;;;;;;8.80;5.45;;;;;;;15.57;100.00;92935.69;5043739;28;20670;-79
2022/05/22 01:59:11;;;;;;;7.40;5.38;;;;;;;15.58;100.00;92932.06;5043479;28;20049;-79
2022/05/22 02:01:37;;;;;;;8.60;6.30;;;;;;;15.56;100.00;92933.31;5043800;28;20064;-78
2022/05/22 02:04:05;;;;;;;8.35;5.90;;;;;;;15.46;100.00;92939.97;5043746;28;20051;-77
2022/05/22 02:06:32;;;;;;;10.65;6.43;;;;;;;15.41;100.00;92939.16;5042578;28;20076;-78
2022/05/22 02:08:58;;;;;;;11.77;6.78;;;;;;;15.24;100.00;92916.78;5044050;28;20047;-79
2022/05/22 02:11:25;;;;;;;9.27;6.05;;;;;;;15.36;100.00;92935.50;5041236;28;20053;-79
2022/05/22 02:13:53;;;;;;;9.65;7.57;;;;;;;15.31;100.00;92926.91;5044826;28;20048;-78
2022/05/22 02:16:20;;;;;;;7.55;5.88;;;;;;;15.33;100.00;92935.22;5043596;28;20049;-78
2022/05/22 02:18:47;;;;;;;9.75;6.25;;;;;;;15.35;100.00;92939.13;5044893;28;20143;-78
2022/05/22 02:21:14;;;;;;;8.18;5.90;;;;;;;15.15;100.00;92915.66;5042749;28;20055;-77
2022/05/22 02:23:40;;;;;;;7.28;5.97;;;;;;;15.33;100.00;92942.97;5047670;28;20428;-78
2022/05/22 02:26:10;;;;;;;9.85;7.25;;;;;;;15.24;100.00;92927.13;5046706;28;20037;-78
2022/05/22 02:28:38;;;;;;;12.50;8.40;;;;;;;15.06;100.00;92900.59;5047457;28;20076;-78
2022/05/22 02:31:06;;;;;;;13.00;9.95;;;;;;;15.34;100.00;92926.41;5045130;28;20128;-78
2022/05/22 02:33:34;;;;;;;11.95;8.73;;;;;;;15.32;100.00;92928.47;5045905;28;20049;-78
2022/05/22 02:36:03;;;;;;;9.95;7.57;;;;;;;15.40;100.00;92935.78;5047089;28;20389;-78
2022/05/22 02:38:30;;;;;;;9.18;7.22;;;;;;;15.34;100.00;92929.81;5047230;28;20085;-77
2022/05/22 02:40:58;;;;;;;7.50;6.25;;;;;;;15.38;100.00;92939.66;5047538;28;20053;-77
2022/05/22 02:43:25;;;;;;;8.60;6.07;;;;;;;15.37;100.00;92944.06;5045831;28;21230;-77
2022/05/22 02:45:51;;;;;;;7.57;6.18;;;;;;;15.39;100.00;92946.38;5047512;28;20436;-79
2022/05/22 02:48:20;;;;;;;8.93;6.18;;;;;;;15.40;100.00;92946.13;5046466;28;20068;-77
2022/05/22 02:50:46;;;;;;;9.63;5.68;;;;;;;15.39;100.00;92947.16;5047045;28;20073;-78
2022/05/22 02:53:13;;;;;;;8.57;6.35;;;;;;;15.39;100.00;92942.00;5045888;28;20492;-78
2022/05/22 02:55:43;;;;;;;7.35;5.55;;;;;;;15.41;100.00;92939.94;5046703;28;20503;-79
2022/05/22 02:58:11;;;;;;;8.73;6.25;;;;;;;15.38;100.00;92942.22;5043430;28;20500;-78
2022/05/22 03:00:38;;;;;;;9.07;6.63;;;;;;;15.39;100.00;92943.78;5045501;28;20460;-79
2022/05/22 03:03:05;;;;;;;8.60;5.88;;;;;;;15.29;100.00;92934.94;5045038;28;20056;-79
2022/05/22 03:08:14;;;;;;;9.15;6.07;;;;;;;15.32;100.00;92933.66;5043954;28;20683;-79
2022/05/22 03:10:41;;;;;;;7.85;5.60;;;;;;;15.41;100.00;92944.34;5045113;28;20057;-80
2022/05/22 03:13:08;;;;;;;7.65;5.32;;;;;;;15.27;100.00;92931.78;5039598;28;20056;-78
2022/05/22 03:15:35;;;;;;;9.40;6.28;;;;;;;15.39;100.00;92954.94;5042643;28;20056;-77
2022/05/22 03:18:02;;;;;;;10.30;6.35;;;;;;;15.39;100.00;92947.16;5045257;28;20056;-77
2022/05/22 03:20:30;;;;;;;9.23;5.70;;;;;;;15.41;100.00;92950.28;5046181;28;20043;-77
2022/05/22 03:22:59;;;;;;;7.15;5.40;;;;;;;15.37;100.00;92946.66;5047827;28;20098;-78
2022/05/22 03:25:26;;;;;;;9.18;6.20;;;;;;;15.39;100.00;92947.16;5047512;28;20084;-77
2022/05/22 03:27:53;;;;;;;9.52;6.75;;;;;;;15.39;100.00;92943.78;5047701;28;20049;-77
2022/05/22 03:30:20;;;;;;;10.80;6.00;;;;;;;15.44;100.00;92946.41;5046203;28;20052;-77
2022/05/22 03:32:47;;;;;;;8.65;5.75;;;;;;;15.44;100.00;92943.84;5045690;28;20049;-77
2022/05/22 03:35:13;;;;;;;9.27;5.93;;;;;;;15.39;100.00;92949.75;5046661;28;20044;-77
2022/05/22 03:37:41;;;;;;;9.48;6.10;;;;;;;15.45;100.00;92943.59;5047796;28;20056;-76
2022/05/22 03:40:11;;;;;;;9.80;5.53;;;;;;;15.52;100.00;92952.97;5047206;28;20052;-76
2022/05/22 03:42:38;;;;;;;8.50;6.00;;;;;;;15.54;100.00;92945.72;5046809;28;20056;-76
2022/05/22 03:45:06;;;;;;;10.75;5.80;;;;;;;15.55;100.00;92948.06;5049121;28;20048;-76
2022/05/22 03:47:33;;;;;;;9.32;5.80;;;;;;;15.56;100.00;92951.44;5048335;28;20128;-76
2022/05/22 03:50:04;;;;;;;8.23;5.63;;;;;;;15.57;100.00;92955.59;5048752;28;20492;-76
2022/05/22 03:52:32;;;;;;;10.25;5.88;;;;;;;15.45;100.00;92930.66;5048142;28;20135;-76
2022/05/22 03:54:59;;;;;;;9.40;5.60;;;;;;;15.69;100.00;92952.84;5048702;28;20037;-76
2022/05/22 03:57:27;;;;;;;7.97;5.75;;;;;;;15.74;100.00;92952.88;5046020;28;20056;-76
2022/05/22 03:59:54;;;;;;;8.00;5.60;;;;;;;15.82;100.00;92949.81;5047260;28;20060;-76
2022/05/22 04:02:21;;;;;;;8.75;6.05;;;;;;;15.86;100.00;92950.09;5047544;28;20053;-76
2022/05/22 04:04:48;;;;;;;16.52;8.90;;;;;;;15.85;100.00;92943.38;5048242;28;20052;-76
2022/05/22 04:07:16;;;;;;;21.95;9.98;;;;;;;15.96;100.00;92944.25;5047259;28;20123;-76
2022/05/22 04:09:43;;;;;;;15.80;8.55;;;;;;;16.00;100.00;92950.50;5048488;28;20077;-76
2022/05/22 04:12:12;;;;;;;16.77;8.95;;;;;;;16.02;100.00;92961.41;5048136;28;20047;-76
2022/05/22 04:14:41;;;;;;;11.65;7.95;;;;;;;16.04;100.00;92948.97;5048780;28;20052;-77
2022/05/22 04:17:07;;;;;;;14.13;8.68;;;;;;;16.16;100.00;92956.56;5047188;28;20049;-77
2022/05/22 04:19:36;;;;;;;13.90;8.63;;;;;;;16.21;100.00;92954.00;5048329;28;20040;-76
2022/05/22 04:22:03;;;;;;;13.18;8.27;;;;;;;16.06;100.00;92949.50;5042840;28;20500;-76
2022/05/22 04:27:14;;;;;;;14.57;7.40;;;;;;;16.23;100.00;92954.53;5047969;28;20515;-77
2022/05/22 04:29:43;;;;;;;14.15;8.15;;;;;;;16.33;100.00;92960.81;5048227;28;20048;-77
2022/05/22 04:32:10;;;;;;;15.00;9.20;;;;;;;16.40;100.00;92964.69;5048462;28;20060;-77
2022/05/22 04:34:37;;;;;;;16.30;10.38;;;;;;;16.39;100.00;92959.78;5048139;28;20515;-77
2022/05/22 04:37:04;;;;;;;14.77;9.40;;;;;;;16.42;100.00;92973.03;5047941;28;20036;-77
2022/05/22 04:39:31;;;;;;;16.10;9.27;;;;;;;16.35;100.00;92971.69;5048321;28;20785;-76
2022/05/22 04:41:58;;;;;;;15.68;8.68;;;;;;;16.21;100.00;92971.34;5046926;28;20052;-76
2022/05/22 04:44:24;;;;;;;15.02;8.75;;;;;;;16.15;100.00;92962.75;5047781;28;20095;-76
2022/05/22 04:46:53;;;;;;;14.38;8.60;;;;;;;16.16;100.00;92964.34;5047825;28;20523;-76
2022/05/22 04:49:19;;;;;;;13.05;8.65;;;;;;;16.16;100.00;92972.88;5047992;28;20622;-76
2022/05/22 04:51:46;;;;;;;15.98;8.70;;;;;;;16.19;100.00;92970.84;5045884;28;20045;-76
2022/05/22 04:54:13;;;;;;;16.73;9.98;;;;;;;16.01;100.00;92976.16;5047888;28;20047;-76
2022/05/22 04:56:40;;;;;;;16.08;8.80;;;;;;;16.00;100.00;92977.19;5048378;28;20045;-75
2022/05/22 04:59:07;;;;;;;19.77;13.43;;;;;;;16.11;100.00;92980.63;5047221;28;20052;-76
2022/05/22 05:01:33;;;;;;;25.02;17.75;;;;;;;16.17;100.00;92969.25;5047763;28;20045;-76
2022/05/22 05:04:02;;;;;;;19.83;14.07;;;;;;;16.29;100.00;92969.06;5045617;28;20052;-76
2022/05/22 05:06:30;;;;;;;17.67;10.13;;;;;;;16.38;100.00;92961.59;5047490;28;20056;-76
2022/05/22 05:08:57;;;;;;;16.88;9.32;;;;;;;16.42;100.00;92973.03;5047755;28;20064;-76
2022/05/22 05:11:24;;;;;;;23.48;9.43;;;;;;;16.59;100.00;92972.06;5047485;28;20041;-76
2022/05/22 05:13:51;;;;;;;21.52;10.35;;;;;;;16.69;100.00;92971.31;5047568;28;20053;-76
2022/05/22 05:16:18;;;;;;;23.95;9.63;;;;;;;16.92;100.00;92974.50;5044721;28;20041;-76
2022/05/22 05:18:45;;;;;;;21.45;9.45;;;;;;;17.04;100.00;92975.09;5046139;28;20555;-76
2022/05/22 05:21:15;;;;;;;21.33;9.18;;;;;;;17.17;100.00;92976.44;5046689;28;20063;-76
2022/05/22 05:23:42;;;;;;;18.67;8.05;;;;;;;17.38;100.00;92979.06;5047216;28;20045;-76
2022/05/22 05:26:09;;;;;;;17.63;8.30;;;;;;;17.54;98.21;92977.25;5047301;28;20049;-76
2022/05/22 05:28:37;;;;;;;16.75;7.57;;;;;;;17.74;99.53;92971.28;5047577;28;20049;-77
2022/05/22 05:31:04;;;;;;;13.55;7.97;;;;;;;17.95;98.78;92965.34;5046774;28;20044;-77
2022/05/22 05:33:32;;;;;;;11.32;6.43;;;;;;;18.00;88.63;92979.09;5046903;28;20045;-76
2022/05/22 05:35:59;;;;;;;5.93;4.50;;;;;;;17.98;83.61;92983.00;5046048;28;20084;-76
2022/05/22 05:38:28;;;;;;;6.55;3.83;;;;;;;18.00;82.48;92983.50;5046379;28;20041;-76
2022/05/22 05:40:55;;;;;;;8.68;4.35;;;;;;;18.09;84.84;92989.75;5046514;28;20431;-76
2022/05/22 05:43:22;;;;;;;8.25;3.67;;;;;;;18.16;79.94;92987.66;5046568;28;20056;-76
2022/05/22 05:45:50;;;;;;;6.95;3.78;;;;;;;18.32;78.34;92992.84;5045282;28;20041;-76
2022/05/22 05:48:17;;;;;;;5.55;3.88;;;;;;;18.55;79.15;92993.31;5046996;28;20045;-76
2022/05/22 05:50:44;;;;;;;5.88;3.17;;;;;;;18.64;71.31;93002.13;5047113;28;21126;-76
2022/05/22 05:53:11;;;;;;;4.13;2.45;;;;;;;18.76;64.41;93004.47;5043857;28;20048;-76
2022/05/22 05:55:40;;;;;;;7.85;2.50;;;;;;;18.87;68.34;92999.19;5048684;28;20045;-76
2022/05/22 05:58:06;;;;;;;2.60;1.75;;;;;;;18.94;57.57;93008.28;5048140;28;20041;-76
2022/05/22 06:00:33;;;;;;;4.55;1.65;;;;;;;19.09;54.08;93004.09;5050980;28;20060;-76
2022/05/22 06:03:01;;;;;;;2.50;1.10;;;;;;;19.17;51.71;92994.94;5050932;28;20053;-76
2022/05/22 06:05:27;;;;;;;3.35;1.35;;;;;;;19.45;54.02;93003.13;5051047;28;20052;-77
2022/05/22 06:07:54;;;;;;;3.63;1.30;;;;;;;19.58;49.91;93002.50;5050602;28;20037;-77
2022/05/22 06:10:22;;;;;;;4.10;1.42;;;;;;;19.73;52.84;93001.63;5050852;28;20479;-76
2022/05/22 06:12:50;;;;;;;4.97;1.67;;;;;;;19.85;54.58;93003.09;5049104;28;20500;-76
2022/05/22 06:15:17;;;;;;;6.28;1.92;;;;;;;19.76;53.06;93008.13;5046421;28;20060;-76
2022/05/22 06:17:47;;;;;;;10.48;1.02;;;;;;;19.47;50.77;92991.38;5050763;28;20044;-75
2022/05/22 06:20:17;;;;;;;2.92;1.10;;;;;;;19.48;52.90;92976.50;5043113;28;20091;-76
2022/05/22 06:22:45;;;;;;;2.53;1.05;;;;;;;19.70;51.27;93007.38;5043807;28;20052;-76
2022/05/22 06:25:15;;;;;;;2.88;0.90;;;;;;;19.45;51.59;93001.28;5047283;28;20052;-75
2022/05/22 06:27:43;;;;;;;1.40;0.90;;;;;;;19.40;52.15;93006.53;5050291;28;20076;-75
2022/05/22 06:30:14;;;;;;;2.85;0.90;;;;;;;19.34;53.20;93005.78;5052240;28;20048;-76
2022/05/22 06:32:42;;;;;;;2.60;1.20;;;;;;;19.04;53.29;93001.50;5048169;28;20525;-75
2022/05/22 06:35:10;;;;;;;4.35;1.35;;;;;;;19.22;53.70;93000.13;5050248;28;20041;-76
2022/05/22 06:37:37;;;;;;;1.55;0.90;;;;;;;19.14;53.93;92985.06;5050372;28;20060;-76
2022/05/22 06:40:05;;;;;;;4.00;1.70;;;;;;;19.15;53.14;93003.00;5040529;28;20049;-76
2022/05/22 06:42:34;;;;;;;6.38;1.60;;;;;;;19.21;52.72;92985.56;5045409;28;20052;-76
2022/05/22 06:45:04;;;;;;;3.30;1.48;;;;;;;19.42;53.05;93001.84;5049966;28;20164;-75
2022/05/22 06:47:34;;;;;;;2.90;1.50;;;;;;;19.28;51.85;92995.66;5050016;28;20722;-75
2022/05/22 06:50:04;;;;;;;2.30;1.00;;;;;;;19.52;54.56;92998.38;5050242;28;20048;-76
2022/05/22 06:52:32;;;;;;;1.63;0.75;;;;;;;19.69;53.73;92998.00;5049844;28;20167;-78
2022/05/22 06:54:59;;;;;;;4.88;1.23;;;;;;;19.47;51.57;92988.78;5049890;28;20072;-75
2022/05/22 06:57:26;;;;;;;4.95;1.10;;;;;;;19.70;52.73;93006.59;5049635;28;20044;-76
2022/05/22 06:59:54;;;;;;;2.53;1.30;;;;;;;19.75;53.50;93003.97;5050043;28;20041;-76
2022/05/22 07:02:21;;;;;;;5.13;1.60;;;;;;;19.75;53.58;93012.56;5048154;28;20048;-76
2022/05/22 07:04:50;;;;;;;4.82;1.50;;;;;;;19.98;54.71;93001.72;5049295;28;20056;-75
2022/05/22 07:07:17;;;;;;;5.32;1.30;;;;;;;20.10;54.18;93003.97;5049053;28;20048;-76
2022/05/22 07:09:44;;;;;;;2.88;1.23;;;;;;;20.19;53.40;92986.69;5042345;28;20594;-75
2022/05/22 07:12:13;;;;;;;3.72;1.38;;;;;;;20.77;52.93;92994.72;5048469;28;20053;-76
2022/05/22 07:14:40;;;;;;;2.85;1.20;;;;;;;21.25;50.19;92998.34;5049599;28;20053;-76
2022/05/22 07:17:09;;;;;;;2.63;1.17;;;;;;;21.29;48.70;92991.50;5049245;28;20381;-76
2022/05/22 07:19:37;;;;;;;2.13;1.10;;;;;;;21.70;50.01;92995.41;5046881;28;20131;-76
2022/05/22 07:22:06;;;;;;;4.05;1.30;;;;;;;21.98;47.12;92998.13;5046308;28;20048;-76
2022/05/22 07:24:33;;;;;;;1.77;1.05;;;;;;;21.57;45.81;93000.25;5045559;28;20080;-76
2022/05/22 07:27:00;;;;;;;2.80;1.00;;;;;;;21.62;45.54;92992.34;5048290;28;20539;-76
2022/05/22 07:29:27;;;;;;;2.90;1.02;;;;;;;21.44;45.66;92974.84;5049174;28;20041;-77
2022/05/22 07:31:56;;;;;;;2.17;1.00;;;;;;;21.89;45.76;92992.75;5046934;28;20045;-76
2022/05/22 07:34:24;;;;;;;2.65;1.02;;;;;;;21.74;46.05;92983.31;5047071;28;20072;-77
2022/05/22 07:36:55;;;;;;;3.05;1.73;;;;;;;22.07;45.67;92978.09;5049265;28;20049;-76
2022/05/22 07:39:23;;;;;;;5.63;1.20;;;;;;;22.10;45.84;92985.38;5049193;28;20056;-76
2022/05/22 07:41:50;;;;;;;3.85;1.10;;;;;;;22.91;45.81;92974.78;5048663;28;20049;-76
2022/05/22 07:44:17;;;;;;;3.20;1.08;;;;;;;23.22;44.28;92985.41;5049012;28;20057;-76
2022/05/22 07:46:45;;;;;;;3.95;1.13;;;;;;;23.00;44.69;92974.88;5049071;28;20044;-76
2022/05/22 07:50:16;;;;;;;4.03;1.20;;;;;;;23.18;45.15;92970.56;5048555;28;20053;-76
2022/05/22 07:52:04;;;;;;;3.67;1.10;;;;;;;23.56;45.20;92967.66;5047248;28;20559;-76
2022/05/22 07:54:34;;;;;;;2.40;1.15;;;;;;;22.85;44.19;92984.59;5048708;28;20083;-76
2022/05/22 07:57:01;;;;;;;3.85;1.75;;;;;;;22.59;45.21;92961.50;5048851;28;20465;-76
2022/05/22 07:59:27;;;;;;;3.35;1.08;;;;;;;22.69;44.84;92968.41;5048424;28;20045;-75
2022/05/22 08:01:54;;;;;;;2.85;1.10;;;;;;;22.36;46.43;92960.59;5048757;28;20071;-75
2022/05/22 08:04:21;;;;;;;2.00;1.20;;;;;;;22.47;47.44;92943.66;5048581;28;20060;-75
2022/05/22 08:06:48;;;;;;;3.00;1.40;;;;;;;22.67;47.72;92954.81;5048552;28;20045;-75
2022/05/22 08:09:15;;;;;;;1.85;1.20;;;;;;;22.67;48.18;92944.34;5048593;28;20052;-76
2022/05/22 08:11:43;;;;;;;2.35;1.50;;;;;;;22.62;47.38;92949.66;5048276;28;20041;-76
2022/05/22 08:14:11;;;;;;;5.13;1.70;;;;;;;22.59;47.12;92947.66;5046439;28;20041;-76
2022/05/22 08:16:38;;;;;;;2.40;1.00;;;;;;;22.22;46.82;92934.44;5048006;28;20514;-76
2022/05/22 08:19:05;;;;;;;4.50;0.98;;;;;;;21.87;47.00;92947.81;5048153;28;20045;-75
2022/05/22 08:21:32;;;;;;;2.75;1.27;;;;;;;21.80;47.78;92947.44;5048292;28;20518;-75
2022/05/22 08:23:59;;;;;;;2.95;1.15;;;;;;;21.67;47.84;92947.06;5045842;28;20996;-76
2022/05/22 08:26:27;;;;;;;3.25;1.25;;;;;;;21.56;48.40;92949.06;5048007;28;20103;-75
2022/05/22 08:28:56;;;;;;;2.60;1.45;;;;;;;21.57;47.44;92944.63;5047974;28;20597;-76
2022/05/22 08:31:23;;;;;;;2.40;1.15;;;;;;;21.44;48.57;92918.13;5049509;28;20420;-75
2022/05/22 08:33:50;;;;;;;4.28;1.60;;;;;;;21.42;47.42;92935.94;5048091;28;20045;-75
2022/05/22 08:36:17;;;;;;;3.20;1.20;;;;;;;21.69;49.85;92939.72;5047908;28;20041;-76
2022/05/22 08:38:44;;;;;;;4.68;1.33;;;;;;;21.44;49.76;92928.56;5048052;28;20049;-75
2022/05/22 08:41:15;;;;;;;2.60;1.58;;;;;;;21.30;49.45;92941.56;5048059;28;20041;-75
2022/05/22 08:43:48;;;;;;;3.97;1.13;;;;;;;21.44;48.54;92933.03;5047633;28;20507;-75
2022/05/22 08:46:35;;;;;;;3.67;1.17;;;;;;;21.61;47.29;92933.28;5047917;28;20451;-76
2022/05/22 08:49:11;;;;;;;2.70;1.20;;;;;;;21.61;46.89;92935.91;5044994;28;20048;-75
2022/05/22 08:51:42;;;;;;;1.83;0.98;;;;;;;21.26;48.63;92922.31;5046190;28;20132;-75
2022/05/22 08:54:14;;;;;;;2.63;1.30;;;;;;;21.07;49.30;92938.75;5045988;28;20041;-75
2022/05/22 08:59:30;;;;;;;4.45;1.33;;;;;;;20.77;50.07;92948.50;5047397;28;20527;-76
2022/05/22 09:02:10;;;;;;;2.65;1.00;;;;;;;20.79;50.26;92940.41;5046355;28;20087;-75
2022/05/22 09:04:42;;;;;;;6.93;1.75;;;;;;;20.75;50.14;92942.81;5045592;28;20060;-75
2022/05/22 09:07:19;;;;;;;2.88;1.30;;;;;;;20.64;51.99;92938.75;5047105;28;20044;-75
2022/05/22 09:09:50;;;;;;;2.97;1.30;;;;;;;20.71;50.73;92941.81;5046301;28;20041;-75
2022/05/22 09:12:34;;;;;;;2.50;1.50;;;;;;;20.80;51.85;92936.75;5047196;28;20045;-76
2022/05/22 09:15:07;;;;;;;3.63;1.45;;;;;;;20.75;52.22;92947.25;5046320;28;20037;-76
2022/05/22 09:17:41;;;;;;;1.60;1.10;;;;;;;20.47;53.04;92932.16;5047580;28;20060;-75
2022/05/22 09:20:16;;;;;;;3.22;1.45;;;;;;;20.75;53.65;92934.97;5047055;28;20136;-76
2022/05/22 09:23:02;;;;;;;3.85;1.58;;;;;;;20.51;54.18;92942.81;5045510;28;20053;-75
2022/05/22 09:25:40;;;;;;;4.05;1.17;;;;;;;20.41;57.04;92933.28;5045641;28;20045;-76
2022/05/22 09:28:19;;;;;;;2.85;1.63;;;;;;;20.31;55.14;92936.75;5045979;28;20045;-75
2022/05/22 09:30:56;;;;;;;3.60;1.80;;;;;;;20.26;55.79;92932.38;5046455;28;20565;-75
2022/05/22 09:33:32;;;;;;;3.08;1.45;;;;;;;20.65;55.71;92933.25;5047010;28;20412;-75
2022/05/22 09:36:10;;;;;;;3.55;1.88;;;;;;;21.02;54.56;92922.41;5045989;28;20045;-76
2022/05/22 09:38:53;;;;;;;5.30;1.98;;;;;;;21.50;53.77;92918.84;5046625;28;20530;-76
2022/05/22 09:41:31;;;;;;;4.55;1.55;;;;;;;21.97;53.88;92913.66;5046481;28;20718;-76
2022/05/22 09:44:31;;;;;;;3.25;1.13;;;;;;;21.95;54.78;92917.63;5040663;28;20086;-76
2022/05/22 09:47:27;;;;;;;2.90;1.30;;;;;;;21.97;50.14;92916.28;5043914;28;20408;-75
2022/05/22 09:50:15;;;;;;;2.72;1.45;;;;;;;22.41;50.31;92903.69;5027606;28;20511;-76
2022/05/22 09:52:53;;;;;;;2.15;1.45;;;;;;;22.00;50.32;92899.22;5043677;28;20041;-76
2022/05/22 09:55:33;;;;;;;2.97;1.35;;;;;;;22.29;51.58;92916.50;5044201;28;20041;-76
2022/05/22 09:58:36;;;;;;;2.08;1.13;;;;;;;22.92;50.53;92908.25;5042385;28;20063;-76
2022/05/22 10:01:11;;;;;;;2.17;1.30;;;;;;;23.00;50.03;92894.44;5043833;28;20049;-76
2022/05/22 10:03:55;;;;;;;2.65;1.35;;;;;;;23.25;50.68;92904.66;5047005;28;20063;-76
2022/05/22 10:06:43;;;;;;;2.17;1.35;;;;;;;23.00;47.72;92906.78;5046166;28;20048;-76
2022/05/22 10:09:32;;;;;;;3.90;2.80;;;;;;;23.86;50.46;92888.56;5046580;28;20052;-76
2022/05/22 10:12:14;;;;;;;3.42;1.50;;;;;;;24.17;47.79;92898.31;5045060;28;20056;-75
2022/05/22 10:14:54;;;;;;;3.08;1.25;;;;;;;24.33;47.05;92882.94;5046593;28;20041;-76
2022/05/22 10:17:35;;;;;;;1.85;1.02;;;;;;;24.43;46.83;92895.00;5045271;28;20053;-76
2022/05/22 10:20:09;;;;;;;2.92;1.35;;;;;;;24.38;48.04;92889.88;5039670;28;20797;-76
2022/05/22 10:23:00;;;;;;;3.25;1.60;;;;;;;24.47;45.96;92887.28;5045379;28;20052;-76
2022/05/22 10:25:38;;;;;;;3.10;1.42;;;;;;;24.52;47.51;92885.31;5046076;28;20577;-76
2022/05/22 10:28:09;;;;;;;4.57;1.23;;;;;;;24.02;47.03;92874.00;5045381;28;20480;-75
2022/05/22 10:30:42;;;;;;;2.85;1.30;;;;;;;24.43;47.78;92858.25;5047772;28;20044;-76
2022/05/22 10:33:16;;;;;;;3.58;1.55;;;;;;;23.42;48.25;92872.59;5046038;28;20056;-76
2022/05/22 10:35:48;;;;;;;4.43;1.92;;;;;;;23.18;51.95;92863.13;5038277;28;20057;-75
2022/05/22 10:38:21;;;;;;;4.75;2.28;;;;;;;23.63;49.88;92862.38;5046544;28;20044;-76
2022/05/22 10:43:38;;;;;;;3.15;1.40;;;;;;;24.25;47.33;92866.09;5043795;28;20064;-76
2022/05/22 10:46:05;;;;;;;2.50;1.30;;;;;;;24.45;48.19;92844.81;5046554;28;20756;-75
2022/05/22 10:48:33;;;;;;;4.60;1.70;;;;;;;25.09;46.67;92861.94;5048180;28;20056;-76
2022/05/22 10:51:05;;;;;;;6.70;1.58;;;;;;;25.42;43.60;92852.78;5050188;28;20049;-76
2022/05/22 10:53:38;;;;;;;6.35;1.38;;;;;;;25.80;42.47;92853.94;5047948;28;20053;-76
2022/05/22 10:56:07;;;;;;;5.03;2.00;;;;;;;25.73;40.60;92834.16;5047864;28;20941;-76
2022/05/22 10:58:36;;;;;;;5.35;1.40;;;;;;;26.10;40.37;92843.50;5047923;28;20049;-76
2022/05/22 11:01:05;;;;;;;4.55;1.48;;;;;;;25.82;40.56;92854.44;5049607;28;20579;-75
2022/05/22 11:03:34;;;;;;;1.90;1.02;;;;;;;25.71;41.95;92852.13;5049347;28;20059;-75
2022/05/22 11:06:04;;;;;;;3.33;1.35;;;;;;;25.72;41.51;92845.00;5049816;28;20044;-76
2022/05/22 11:08:35;;;;;;;2.28;1.30;;;;;;;25.89;41.69;92846.81;5049454;28;20048;-76
2022/05/22 11:11:12;;;;;;;10.25;2.40;;;;;;;25.15;42.85;92825.75;5049586;28;20052;-75
2022/05/22 11:13:39;;;;;;;4.55;1.70;;;;;;;25.19;43.02;92843.19;5048228;28;20049;-75
2022/05/22 11:16:13;;;;;;;3.88;1.50;;;;;;;24.89;43.66;92843.06;5047692;28;20064;-75
2022/05/22 11:18:40;;;;;;;3.15;1.40;;;;;;;24.89;41.82;92808.13;5048197;28;20503;-75
2022/05/22 11:21:18;;;;;;;2.45;1.40;;;;;;;25.13;42.87;92820.78;5049044;28;20826;-75
2022/05/22 11:24:14;;;;;;;3.20;1.33;;;;;;;23.86;45.21;92836.91;5048238;28;20130;-74
2022/05/22 11:26:56;;;;;;;3.22;1.35;;;;;;;24.07;45.31;92825.09;5047721;28;20068;-75
2022/05/22 11:29:50;;;;;;;3.45;1.83;;;;;;;24.38;45.27;92822.44;5047295;28;20041;-75
2022/05/22 11:32:36;;;;;;;2.13;1.23;;;;;;;24.10;46.49;92821.88;5039999;28;20052;-75
2022/05/22 11:35:34;;;;;;;7.07;1.40;;;;;;;23.36;48.76;92819.53;5048555;28;20048;-74
2022/05/22 11:38:16;;;;;;;2.88;1.10;;;;;;;24.01;47.63;92793.75;5036399;28;20063;-75
2022/05/22 11:40:52;;;;;;;3.15;1.42;;;;;;;24.04;46.24;92829.09;5047577;28;20041;-75
2022/05/22 11:43:34;;;;;;;3.70;1.40;;;;;;;24.69;44.86;92820.78;5048759;28;20546;-75
2022/05/22 11:46:05;;;;;;;3.20;1.30;;;;;;;24.71;44.43;92809.97;5047750;28;20538;-75
2022/05/22 11:48:47;;;;;;;2.67;1.52;;;;;;;24.76;43.82;92823.69;5048702;28;20099;-75
2022/05/22 11:51:37;;;;;;;3.05;1.20;;;;;;;24.76;42.38;92834.22;5047021;28;20049;-76
2022/05/22 11:54:14;;;;;;;2.45;1.13;;;;;;;24.58;43.20;92809.81;5048145;28;20041;-75